アロフィ の空港の天気 - METARとTAF

ニウエ国際空港 ( NIUE / IUE ) - ニウエ アロフィ
飛行場実況気象(Metar)
観測時間12/07 23:00 NUT (12/08 10:00 UTC)
風向・風速南東 5m/s
視程-
天気現象
-
気温24℃
湿度89%
気圧1012hPa
METARNIUE 081000Z AUTO 13010KT // 24/22 Q1012
過去の天気等 Google飛行場航空写真 Wunderground天気予報

過去48時間のMETAR

飛行場予報(TAF)
データがありません